createdAt,value
2022-11-16T00:01:28.025Z,8.35
2022-11-16T00:03:59.597Z,8.60
2022-11-16T00:06:29.212Z,7.20
2022-11-16T00:09:13.036Z,6.90
2022-11-16T00:11:42.653Z,8.25
2022-11-16T00:14:11.972Z,8.00
2022-11-16T00:16:41.284Z,9.45
2022-11-16T00:19:10.793Z,8.35
2022-11-16T00:21:39.983Z,8.07
2022-11-16T00:24:10.079Z,7.82
2022-11-16T00:26:39.327Z,8.27
2022-11-16T00:29:08.585Z,7.78
2022-11-16T00:31:39.338Z,8.75
2022-11-16T00:34:08.552Z,7.68
2022-11-16T00:36:37.761Z,8.35
2022-11-16T00:39:07.418Z,7.25
2022-11-16T00:41:36.678Z,8.73
2022-11-16T00:44:05.901Z,8.10
2022-11-16T00:46:35.160Z,8.43
2022-11-16T00:49:05.516Z,8.32
2022-11-16T00:51:34.975Z,7.75
2022-11-16T00:54:04.505Z,8.20
2022-11-16T00:56:36.222Z,8.38
2022-11-16T00:59:06.807Z,8.02
2022-11-16T01:01:36.203Z,8.52
2022-11-16T01:04:05.463Z,7.90
2022-11-16T01:06:34.764Z,7.50
2022-11-16T01:09:04.181Z,7.57
2022-11-16T01:11:45.909Z,8.50
2022-11-16T01:14:15.377Z,9.50
2022-11-16T01:16:45.955Z,8.60
2022-11-16T01:19:15.221Z,9.20
2022-11-16T01:21:44.494Z,7.80
2022-11-16T01:24:13.821Z,9.18
2022-11-16T01:26:43.175Z,9.23
2022-11-16T01:29:12.468Z,8.00
2022-11-16T01:31:45.840Z,8.63
2022-11-16T01:34:15.140Z,8.90
2022-11-16T01:36:44.545Z,8.07
2022-11-16T01:39:17.598Z,8.55
2022-11-16T01:41:54.771Z,8.35
2022-11-16T01:44:36.362Z,8.18
2022-11-16T01:47:12.562Z,8.20
2022-11-16T01:49:47.342Z,9.30
2022-11-16T01:52:20.121Z,8.82
2022-11-16T01:54:50.830Z,8.68
2022-11-16T01:57:23.376Z,8.00
2022-11-16T02:00:04.783Z,9.38
2022-11-16T02:02:43.087Z,8.73
2022-11-16T02:05:25.182Z,8.23
2022-11-16T02:08:28.958Z,8.70
2022-11-16T02:11:25.276Z,9.70
2022-11-16T02:13:54.861Z,8.48
2022-11-16T02:16:27.278Z,9.70
2022-11-16T02:18:56.478Z,9.05
2022-11-16T02:21:31.908Z,7.95
2022-11-16T02:24:01.201Z,8.93
2022-11-16T02:26:49.318Z,9.07
2022-11-16T02:29:23.429Z,9.00
2022-11-16T02:31:52.646Z,9.13
2022-11-16T02:34:22.877Z,7.50
2022-11-16T02:36:54.091Z,8.48
2022-11-16T02:39:25.093Z,8.88
2022-11-16T02:41:55.829Z,8.27
2022-11-16T02:44:37.695Z,7.90
2022-11-16T02:47:12.384Z,8.07
2022-11-16T02:49:43.850Z,8.68
2022-11-16T02:52:14.370Z,8.43
2022-11-16T02:54:43.749Z,7.45
2022-11-16T02:57:23.833Z,7.50
2022-11-16T02:59:54.549Z,7.70
2022-11-16T03:02:24.132Z,8.10
2022-11-16T03:04:57.732Z,7.43
2022-11-16T03:07:30.049Z,6.90
2022-11-16T03:10:00.594Z,7.32
2022-11-16T03:12:31.089Z,6.83
2022-11-16T03:15:07.674Z,6.07
2022-11-16T03:17:40.916Z,6.38
2022-11-16T03:20:20.477Z,6.30
2022-11-16T03:22:49.770Z,6.53
2022-11-16T03:25:20.277Z,6.75
2022-11-16T03:28:05.047Z,5.90
2022-11-16T03:30:36.887Z,6.70
2022-11-16T03:35:43.145Z,6.03
2022-11-16T03:38:13.946Z,6.03
2022-11-16T03:40:48.364Z,6.47
2022-11-16T03:43:18.269Z,6.60
2022-11-16T03:45:48.465Z,5.95
2022-11-16T03:48:17.864Z,5.93
2022-11-16T03:50:47.805Z,5.55
2022-11-16T03:53:17.197Z,4.72
2022-11-16T03:55:49.822Z,4.95
2022-11-16T03:58:19.724Z,5.47
2022-11-16T04:00:49.560Z,5.45
2022-11-16T04:03:18.833Z,5.43
2022-11-16T04:06:03.420Z,5.00
2022-11-16T04:08:45.135Z,5.43
2022-11-16T04:11:29.253Z,5.82
2022-11-16T04:16:55.750Z,4.93
2022-11-16T04:19:37.526Z,4.80
2022-11-16T04:22:21.635Z,4.82
2022-11-16T04:24:53.324Z,4.70
2022-11-16T04:27:37.451Z,3.45
2022-11-16T04:30:07.678Z,3.80
2022-11-16T04:32:49.694Z,4.25
2022-11-16T04:35:32.321Z,4.13
2022-11-16T04:38:01.911Z,2.97
2022-11-16T04:40:35.079Z,3.35
2022-11-16T04:43:05.973Z,3.03
2022-11-16T04:45:50.821Z,2.80
2022-11-16T04:48:22.701Z,2.42
2022-11-16T04:50:55.381Z,2.97
2022-11-16T04:53:28.011Z,2.72
2022-11-16T04:56:07.706Z,2.60
2022-11-16T04:58:37.113Z,2.40
2022-11-16T05:01:06.546Z,2.40
2022-11-16T05:03:35.940Z,3.53
2022-11-16T05:06:05.346Z,2.15
2022-11-16T05:08:36.378Z,1.70
2022-11-16T05:11:07.449Z,2.10
2022-11-16T05:13:36.716Z,2.75
2022-11-16T05:16:06.155Z,2.35
2022-11-16T05:18:35.684Z,2.20
2022-11-16T05:21:04.327Z,2.60
2022-11-16T05:24:03.449Z,2.47
2022-11-16T05:26:33.651Z,2.25
2022-11-16T05:29:04.682Z,2.35
2022-11-16T05:31:39.116Z,2.42
2022-11-16T05:34:11.370Z,2.40
2022-11-16T05:36:40.754Z,2.20
2022-11-16T05:39:10.034Z,3.03
2022-11-16T05:41:41.156Z,2.15
2022-11-16T05:44:10.597Z,2.55
2022-11-16T05:46:39.858Z,2.30
2022-11-16T05:49:10.566Z,2.17
2022-11-16T05:51:40.262Z,2.50
2022-11-16T05:54:10.495Z,2.45
2022-11-16T05:56:39.949Z,2.67
2022-11-16T05:59:15.205Z,2.47
2022-11-16T06:01:46.148Z,2.28
2022-11-16T06:04:16.003Z,2.47
2022-11-16T06:06:45.468Z,2.42
2022-11-16T06:09:15.527Z,2.90
2022-11-16T06:11:44.748Z,2.60
2022-11-16T06:14:14.039Z,3.15
2022-11-16T06:16:43.290Z,3.55
2022-11-16T06:19:13.562Z,3.80
2022-11-16T06:21:43.473Z,4.40
2022-11-16T06:24:19.171Z,3.75
2022-11-16T06:26:49.655Z,3.33
2022-11-16T06:29:18.918Z,3.92
2022-11-16T06:31:48.209Z,3.35
2022-11-16T06:34:21.134Z,3.22
2022-11-16T06:36:52.510Z,2.70
2022-11-16T06:39:22.660Z,3.65
2022-11-16T06:41:52.260Z,5.22
2022-11-16T06:44:21.597Z,3.00
2022-11-16T06:46:58.426Z,3.03
2022-11-16T06:49:27.812Z,2.88
2022-11-16T06:52:01.066Z,3.05
2022-11-16T06:54:30.501Z,2.92
2022-11-16T06:57:00.039Z,2.72
2022-11-16T06:59:29.794Z,2.83
2022-11-16T07:01:59.123Z,4.00
2022-11-16T07:04:30.837Z,4.00
2022-11-16T07:07:01.175Z,3.45
2022-11-16T07:09:30.733Z,3.72
2022-11-16T07:12:00.431Z,3.72
2022-11-16T07:14:32.416Z,3.50
2022-11-16T07:17:06.507Z,3.92
2022-11-16T07:19:38.522Z,3.85
2022-11-16T07:22:08.932Z,4.55
2022-11-16T07:24:38.376Z,4.18
2022-11-16T07:27:07.792Z,4.13
2022-11-16T07:29:39.685Z,4.45
2022-11-16T07:32:25.613Z,3.47
2022-11-16T07:35:12.462Z,4.07
2022-11-16T07:37:42.525Z,4.22
2022-11-16T07:40:12.949Z,4.75
2022-11-16T07:42:43.643Z,3.88
2022-11-16T07:45:27.070Z,4.93
2022-11-16T07:48:00.730Z,5.13
2022-11-16T07:51:02.703Z,4.63
2022-11-16T07:53:34.259Z,4.22
2022-11-16T07:56:03.520Z,4.47
2022-11-16T07:58:35.596Z,4.28
2022-11-16T08:01:13.486Z,5.28
2022-11-16T08:03:43.809Z,5.30
2022-11-16T08:06:20.310Z,5.15
2022-11-16T08:08:56.653Z,4.85
2022-11-16T08:11:28.343Z,5.07
2022-11-16T08:13:58.348Z,4.10
2022-11-16T08:16:27.569Z,5.15
2022-11-16T08:19:05.229Z,4.55
2022-11-16T08:21:35.432Z,4.30
2022-11-16T08:24:05.165Z,4.32
2022-11-16T08:26:38.608Z,4.30
2022-11-16T08:29:12.150Z,4.72
2022-11-16T08:31:46.631Z,4.00
2022-11-16T08:34:19.804Z,4.28
2022-11-16T08:36:52.581Z,4.43
2022-11-16T08:39:27.609Z,3.75
2022-11-16T08:41:56.962Z,4.03
2022-11-16T08:44:26.262Z,3.55
2022-11-16T08:46:57.746Z,3.70
2022-11-16T08:49:37.515Z,3.30
2022-11-16T08:52:07.336Z,3.90
2022-11-16T08:54:37.554Z,2.83
2022-11-16T08:57:07.897Z,3.28
2022-11-16T08:59:41.270Z,3.10
2022-11-16T09:02:14.956Z,3.03
2022-11-16T09:04:44.454Z,3.67
2022-11-16T09:07:13.705Z,3.65
2022-11-16T09:09:43.119Z,2.55
2022-11-16T09:12:12.419Z,2.72
2022-11-16T09:14:41.614Z,2.85
2022-11-16T09:17:10.779Z,2.70
2022-11-16T09:19:39.957Z,2.63
2022-11-16T09:22:09.140Z,3.17
2022-11-16T09:24:38.348Z,2.42
2022-11-16T09:27:07.563Z,2.55
2022-11-16T09:29:36.722Z,3.13
2022-11-16T09:32:06.150Z,2.60
2022-11-16T09:34:38.869Z,2.60
2022-11-16T09:37:08.133Z,3.03
2022-11-16T09:39:37.393Z,2.63
2022-11-16T09:42:06.734Z,2.90
2022-11-16T09:44:54.648Z,2.70
2022-11-16T09:47:24.805Z,3.15
2022-11-16T09:50:01.581Z,2.92
2022-11-16T09:52:44.166Z,3.20
2022-11-16T09:55:19.126Z,3.38
2022-11-16T09:57:52.670Z,3.63
2022-11-16T10:00:23.746Z,3.10
2022-11-16T10:03:09.433Z,2.92
2022-11-16T10:05:45.110Z,2.55
2022-11-16T10:08:25.681Z,2.03
2022-11-16T10:11:06.374Z,2.67
2022-11-16T10:13:42.074Z,3.30
2022-11-16T10:16:14.316Z,1.98
2022-11-16T10:19:00.554Z,1.85
2022-11-16T10:21:42.214Z,2.25
2022-11-16T10:24:17.614Z,1.85
2022-11-16T10:26:59.270Z,2.42
2022-11-16T10:29:40.814Z,2.27
2022-11-16T10:32:16.538Z,2.25
2022-11-16T10:34:52.483Z,2.33
2022-11-16T10:37:22.382Z,1.52
2022-11-16T10:39:53.228Z,2.90
2022-11-16T10:42:27.553Z,1.90
2022-11-16T10:45:03.034Z,1.90
2022-11-16T10:47:42.723Z,1.92
2022-11-16T10:50:36.066Z,1.90
2022-11-16T10:53:05.285Z,2.85
2022-11-16T10:55:34.482Z,1.83
2022-11-16T10:58:05.137Z,1.92
2022-11-16T11:00:43.063Z,1.92
2022-11-16T11:03:12.713Z,3.13
2022-11-16T11:05:54.843Z,2.05
2022-11-16T11:08:30.560Z,1.85
2022-11-16T11:11:24.315Z,2.10
2022-11-16T11:14:07.439Z,2.00
2022-11-16T11:16:37.038Z,1.80
2022-11-16T11:19:25.113Z,2.08
2022-11-16T11:21:58.317Z,2.42
2022-11-16T11:24:43.803Z,1.90
2022-11-16T11:27:14.041Z,1.73
2022-11-16T11:29:44.929Z,2.35
2022-11-16T11:32:23.811Z,1.40
2022-11-16T11:34:55.836Z,1.33
2022-11-16T11:37:27.193Z,2.65
2022-11-16T11:40:15.322Z,1.52
2022-11-16T11:42:53.698Z,1.85
2022-11-16T11:45:23.896Z,2.42
2022-11-16T11:47:58.780Z,1.83
2022-11-16T11:50:37.964Z,2.00
2022-11-16T11:53:30.536Z,2.10
2022-11-16T11:56:01.112Z,1.88
2022-11-16T11:58:35.649Z,1.58
2022-11-16T12:01:25.491Z,1.88
2022-11-16T12:04:08.112Z,1.60
2022-11-16T12:06:51.330Z,1.60
2022-11-16T12:09:38.868Z,1.73
2022-11-16T12:12:20.183Z,1.45
2022-11-16T12:15:08.186Z,1.80
2022-11-16T12:17:40.452Z,1.80
2022-11-16T12:23:01.140Z,2.05
2022-11-16T12:25:51.939Z,1.92
2022-11-16T12:28:23.948Z,1.40
2022-11-16T12:31:05.305Z,1.10
2022-11-16T12:33:40.310Z,1.60
2022-11-16T12:36:28.241Z,1.02
2022-11-16T12:39:03.805Z,1.90
2022-11-16T12:41:44.359Z,1.60
2022-11-16T12:44:14.373Z,1.35
2022-11-16T12:47:07.589Z,1.55
2022-11-16T12:49:55.222Z,1.27
2022-11-16T12:52:43.428Z,1.30
2022-11-16T12:55:25.768Z,2.45
2022-11-16T12:57:55.830Z,1.88
2022-11-16T13:00:25.119Z,2.03
2022-11-16T13:02:57.380Z,1.65
2022-11-16T13:05:46.866Z,1.48
2022-11-16T13:08:19.332Z,1.60
2022-11-16T13:10:49.545Z,1.65
2022-11-16T13:13:36.334Z,1.45
2022-11-16T13:16:19.322Z,1.80
2022-11-16T13:18:48.837Z,1.42
2022-11-16T13:21:27.141Z,1.40
2022-11-16T13:24:15.238Z,1.33
2022-11-16T13:26:49.579Z,0.90
2022-11-16T13:29:30.400Z,1.20
2022-11-16T13:31:59.899Z,1.52
2022-11-16T13:34:31.747Z,1.30
2022-11-16T13:37:01.079Z,1.20
2022-11-16T13:39:48.994Z,1.17
2022-11-16T13:42:18.320Z,1.10
2022-11-16T13:44:51.548Z,1.33
2022-11-16T13:47:24.760Z,1.55
2022-11-16T13:49:56.651Z,1.63
2022-11-16T13:52:35.685Z,1.63
2022-11-16T13:55:38.598Z,1.40
2022-11-16T13:58:08.404Z,1.55
2022-11-16T14:00:38.833Z,1.50
2022-11-16T14:03:20.210Z,1.38
2022-11-16T14:05:50.398Z,1.60
2022-11-16T14:08:22.404Z,1.27
2022-11-16T14:10:51.637Z,1.38
2022-11-16T14:13:39.685Z,2.10
2022-11-16T14:16:19.422Z,1.63
2022-11-16T14:18:56.071Z,1.75
2022-11-16T14:21:28.308Z,1.52
2022-11-16T14:24:21.821Z,1.52
2022-11-16T14:27:09.577Z,1.63
2022-11-16T14:29:41.565Z,1.92
2022-11-16T14:32:27.255Z,1.45
2022-11-16T14:34:57.885Z,1.98
2022-11-16T14:37:28.354Z,2.15
2022-11-16T14:40:23.841Z,1.00
2022-11-16T14:43:15.936Z,2.10
2022-11-16T14:45:49.957Z,1.52
2022-11-16T14:48:20.593Z,1.75
2022-11-16T14:51:01.266Z,2.40
2022-11-16T14:53:31.016Z,2.15
2022-11-16T14:56:10.762Z,1.17
2022-11-16T14:58:40.411Z,1.17
2022-11-16T15:01:15.299Z,1.40
2022-11-16T15:03:55.058Z,3.25
2022-11-16T15:06:24.682Z,1.30
2022-11-16T15:09:04.701Z,1.50
2022-11-16T15:11:52.785Z,1.73
2022-11-16T15:14:23.878Z,1.20
2022-11-16T15:16:54.588Z,2.67
2022-11-16T15:19:24.197Z,1.52
2022-11-16T15:21:58.775Z,1.17
2022-11-16T15:24:35.705Z,1.73
2022-11-16T15:27:11.105Z,1.52
2022-11-16T15:29:40.753Z,1.40
2022-11-16T15:32:15.706Z,1.73
2022-11-16T15:34:45.057Z,1.42
2022-11-16T15:37:15.355Z,2.38
2022-11-16T15:39:45.447Z,1.60
2022-11-16T15:42:16.626Z,2.10
2022-11-16T15:44:45.930Z,1.70
2022-11-16T15:47:15.722Z,1.90
2022-11-16T15:49:45.455Z,2.28
2022-11-16T15:52:14.640Z,1.95
2022-11-16T15:55:08.269Z,3.13
2022-11-16T15:57:37.541Z,3.50
2022-11-16T16:00:06.982Z,3.45
2022-11-16T16:02:36.189Z,2.58
2022-11-16T16:05:05.438Z,2.38
2022-11-16T16:07:41.464Z,2.05
2022-11-16T16:10:22.668Z,2.28
2022-11-16T16:12:56.007Z,2.58
2022-11-16T16:15:36.783Z,2.88
2022-11-16T16:18:14.190Z,2.67
2022-11-16T16:20:49.296Z,2.30
2022-11-16T16:23:20.682Z,3.22
2022-11-16T16:25:50.700Z,3.00
2022-11-16T16:28:20.215Z,2.60
2022-11-16T16:30:53.013Z,2.60
2022-11-16T16:33:25.701Z,2.40
2022-11-16T16:35:54.930Z,2.67
2022-11-16T16:38:24.129Z,2.38
2022-11-16T16:40:53.370Z,2.15
2022-11-16T16:43:22.702Z,2.30
2022-11-16T16:45:51.876Z,1.80
2022-11-16T16:48:21.107Z,2.20
2022-11-16T16:50:50.365Z,1.67
2022-11-16T16:53:19.914Z,1.90
2022-11-16T16:55:49.371Z,2.28
2022-11-16T16:58:18.595Z,1.45
2022-11-16T17:00:47.793Z,1.48
2022-11-16T17:03:16.984Z,1.70
2022-11-16T17:05:46.187Z,1.85
2022-11-16T17:08:15.416Z,2.40
2022-11-16T17:10:44.585Z,1.90
2022-11-16T17:13:13.781Z,2.55
2022-11-16T17:15:42.972Z,2.15
2022-11-16T17:18:12.226Z,2.30
2022-11-16T17:20:45.307Z,2.30
2022-11-16T17:23:15.288Z,2.45
2022-11-16T17:25:44.500Z,2.30
2022-11-16T17:28:13.683Z,2.15
2022-11-16T17:30:42.900Z,2.00
2022-11-16T17:33:12.115Z,2.45
2022-11-16T17:35:41.486Z,2.08
2022-11-16T17:38:11.407Z,2.00
2022-11-16T17:40:40.591Z,1.95
2022-11-16T17:43:09.765Z,2.38
2022-11-16T17:45:38.977Z,2.63
2022-11-16T17:48:08.457Z,2.00
2022-11-16T17:50:37.647Z,2.53
2022-11-16T17:53:06.862Z,2.50
2022-11-16T17:55:37.000Z,2.28
2022-11-16T17:58:06.213Z,2.22
2022-11-16T18:00:35.445Z,2.55
2022-11-16T18:03:04.658Z,2.08
2022-11-16T18:05:33.859Z,2.40
2022-11-16T18:08:03.025Z,2.25
2022-11-16T18:10:32.837Z,2.47
2022-11-16T18:13:02.009Z,2.03
2022-11-16T18:15:31.250Z,2.28
2022-11-16T18:18:00.528Z,2.30
2022-11-16T18:20:30.341Z,2.55
2022-11-16T18:22:59.809Z,2.45
2022-11-16T18:25:29.167Z,3.00
2022-11-16T18:27:58.775Z,2.67
2022-11-16T18:30:28.011Z,2.28
2022-11-16T18:32:57.269Z,2.42
2022-11-16T18:35:26.417Z,2.38
2022-11-16T18:37:55.593Z,2.80
2022-11-16T18:40:24.815Z,3.47
2022-11-16T18:42:54.011Z,2.33
2022-11-16T18:45:23.263Z,2.85
2022-11-16T18:47:52.519Z,3.47
2022-11-16T18:50:26.685Z,3.50
2022-11-16T18:52:56.252Z,3.35
2022-11-16T18:55:25.747Z,3.15
2022-11-16T18:57:54.963Z,2.70
2022-11-16T19:00:24.223Z,2.25
2022-11-16T19:02:53.454Z,2.88
2022-11-16T19:05:22.640Z,2.95
2022-11-16T19:07:51.878Z,2.83
2022-11-16T19:10:21.053Z,2.05
2022-11-16T19:12:50.364Z,2.10
2022-11-16T19:15:19.598Z,2.47
2022-11-16T19:18:14.572Z,2.45
2022-11-16T19:20:38.102Z,2.05
2022-11-16T19:23:07.379Z,2.40
2022-11-16T19:25:36.564Z,2.45
2022-11-16T19:28:06.682Z,2.65
2022-11-16T19:30:35.910Z,1.80
2022-11-16T19:33:05.089Z,2.30
2022-11-16T19:35:34.291Z,2.75
2022-11-16T19:38:03.473Z,1.90
2022-11-16T19:40:32.654Z,2.78
2022-11-16T19:43:01.896Z,2.58
2022-11-16T19:45:31.091Z,2.28
2022-11-16T19:48:00.275Z,2.33
2022-11-16T19:50:29.462Z,2.47
2022-11-16T19:52:58.855Z,1.98
2022-11-16T19:55:28.023Z,2.17
2022-11-16T19:57:57.221Z,2.70
2022-11-16T20:00:26.551Z,2.47
2022-11-16T20:02:59.741Z,2.33
2022-11-16T20:05:30.134Z,3.60
2022-11-16T20:07:59.336Z,2.33
2022-11-16T20:10:30.923Z,2.45
2022-11-16T20:13:00.175Z,2.42
2022-11-16T20:15:29.431Z,2.45
2022-11-16T20:17:58.664Z,2.92
2022-11-16T20:20:27.875Z,2.70
2022-11-16T20:22:57.237Z,2.10
2022-11-16T20:25:26.423Z,2.30
2022-11-16T20:27:55.645Z,2.60
2022-11-16T20:30:24.865Z,2.00
2022-11-16T20:32:54.026Z,2.75
2022-11-16T20:35:23.232Z,2.20
2022-11-16T20:37:52.453Z,2.20
2022-11-16T20:40:21.657Z,2.08
2022-11-16T20:42:50.835Z,2.45
2022-11-16T20:45:20.058Z,1.98
2022-11-16T20:47:49.292Z,2.15
2022-11-16T20:50:19.496Z,2.00
2022-11-16T20:52:52.733Z,2.30
2022-11-16T20:55:22.171Z,2.45
2022-11-16T20:57:51.331Z,3.20
2022-11-16T21:00:21.294Z,2.55
2022-11-16T21:02:50.517Z,2.22
2022-11-16T21:05:19.708Z,2.20
2022-11-16T21:07:48.872Z,3.00
2022-11-16T21:10:21.172Z,2.40
2022-11-16T21:13:02.870Z,3.10
2022-11-16T21:15:32.232Z,2.60
2022-11-16T21:18:01.809Z,2.20
2022-11-16T21:20:31.557Z,2.60
2022-11-16T21:23:00.786Z,3.15
2022-11-16T21:25:30.012Z,2.70
2022-11-16T21:27:59.162Z,2.53
2022-11-16T21:30:28.417Z,2.60
2022-11-16T21:32:57.745Z,2.47
2022-11-16T21:35:27.193Z,1.60
2022-11-16T21:37:56.426Z,2.25
2022-11-16T21:40:25.582Z,2.10
2022-11-16T21:42:54.808Z,2.17
2022-11-16T21:45:24.070Z,3.13
2022-11-16T21:47:53.305Z,2.30
2022-11-16T21:50:31.773Z,2.90
2022-11-16T21:53:02.229Z,2.72
2022-11-16T21:55:31.486Z,2.10
2022-11-16T21:58:00.836Z,3.78
2022-11-16T22:00:30.089Z,2.30
2022-11-16T22:02:59.273Z,2.65
2022-11-16T22:05:40.951Z,2.10
2022-11-16T22:08:11.652Z,2.27
2022-11-16T22:10:40.893Z,2.25
2022-11-16T22:13:10.283Z,1.90
2022-11-16T22:15:39.481Z,2.50
2022-11-16T22:18:08.707Z,2.92
2022-11-16T22:20:37.952Z,2.80
2022-11-16T22:23:07.296Z,2.17
2022-11-16T22:25:36.593Z,2.50
2022-11-16T22:28:20.206Z,2.47
2022-11-16T22:30:52.206Z,2.63
2022-11-16T22:33:21.692Z,2.63
2022-11-16T22:35:50.911Z,3.22
2022-11-16T22:38:20.073Z,3.25
2022-11-16T22:40:56.183Z,3.25
2022-11-16T22:43:26.435Z,3.08
2022-11-16T22:45:59.605Z,3.10
2022-11-16T22:48:47.920Z,2.20
2022-11-16T22:51:24.290Z,2.60
2022-11-16T22:54:03.385Z,3.15
2022-11-16T22:56:33.661Z,3.25
2022-11-16T22:59:05.419Z,2.95
2022-11-16T23:01:34.833Z,2.92
2022-11-16T23:04:04.276Z,2.28
2022-11-16T23:06:33.466Z,2.88
2022-11-16T23:09:02.768Z,2.58
2022-11-16T23:11:44.470Z,3.20
2022-11-16T23:14:30.117Z,3.22
2022-11-16T23:16:59.630Z,2.78
2022-11-16T23:19:41.575Z,2.85
2022-11-16T23:22:26.864Z,3.45
2022-11-16T23:25:08.550Z,3.03
2022-11-16T23:27:46.532Z,3.07
2022-11-16T23:30:15.788Z,3.08
2022-11-16T23:32:44.964Z,3.97
2022-11-16T23:35:14.200Z,4.00
2022-11-16T23:37:53.373Z,3.13
2022-11-16T23:40:22.693Z,3.20
2022-11-16T23:43:04.894Z,3.13
2022-11-16T23:45:34.088Z,3.17
2022-11-16T23:48:03.341Z,2.85
2022-11-16T23:50:32.550Z,3.20
2022-11-16T23:53:01.857Z,3.10
2022-11-16T23:55:31.070Z,3.20
2022-11-16T23:58:00.292Z,2.97
